createdAt,value
2019-03-21T00:00:03.248Z,4.81
2019-03-21T00:01:03.283Z,4.81
2019-03-21T00:02:03.266Z,4.81
2019-03-21T00:03:03.353Z,4.75
2019-03-21T00:04:03.258Z,4.69
2019-03-21T00:05:03.326Z,4.69
2019-03-21T00:06:03.320Z,4.69
2019-03-21T00:07:03.304Z,4.69
2019-03-21T00:08:03.367Z,4.69
2019-03-21T00:09:03.340Z,4.62
2019-03-21T00:10:03.402Z,4.62
2019-03-21T00:11:03.286Z,4.69
2019-03-21T00:12:03.268Z,4.62
2019-03-21T00:13:03.363Z,4.62
2019-03-21T00:14:07.629Z,4.56
2019-03-21T00:15:03.332Z,4.56
2019-03-21T00:16:03.266Z,4.56
2019-03-21T00:17:03.276Z,4.56
2019-03-21T00:18:03.251Z,4.56
2019-03-21T00:19:03.258Z,4.56
2019-03-21T00:20:03.245Z,4.56
2019-03-21T00:21:03.222Z,4.56
2019-03-21T00:22:03.241Z,4.56
2019-03-21T00:23:03.226Z,4.56
2019-03-21T00:24:03.286Z,4.62
2019-03-21T00:25:03.241Z,4.62
2019-03-21T00:26:03.209Z,4.62
2019-03-21T00:27:03.232Z,4.69
2019-03-21T00:28:03.212Z,4.75
2019-03-21T00:29:03.346Z,4.69
2019-03-21T00:30:03.207Z,4.81
2019-03-21T00:31:03.291Z,4.81
2019-03-21T00:32:03.451Z,4.81
2019-03-21T00:33:03.245Z,4.87
2019-03-21T00:34:03.320Z,4.87
2019-03-21T00:35:03.250Z,4.94
2019-03-21T00:36:03.278Z,4.94
2019-03-21T00:37:03.233Z,5
2019-03-21T00:38:03.252Z,4.94
2019-03-21T00:39:03.294Z,5
2019-03-21T00:40:03.240Z,5.06
2019-03-21T00:41:03.299Z,5
2019-03-21T00:42:03.208Z,5.06
2019-03-21T00:43:03.316Z,5
2019-03-21T00:44:03.191Z,5.06
2019-03-21T00:45:03.199Z,5.06
2019-03-21T00:46:03.226Z,5.06
2019-03-21T00:47:03.198Z,5.06
2019-03-21T00:48:03.220Z,5.12
2019-03-21T00:49:03.350Z,5.06
2019-03-21T00:50:03.178Z,5.06
2019-03-21T00:51:03.204Z,5.12
2019-03-21T00:52:03.178Z,5.12
2019-03-21T00:53:03.287Z,5.12
2019-03-21T00:54:03.286Z,5.12
2019-03-21T00:55:03.182Z,5.19
2019-03-21T00:56:03.249Z,5.19
2019-03-21T00:57:03.182Z,5.25
2019-03-21T00:58:03.185Z,5.12
2019-03-21T00:59:03.161Z,5.19
2019-03-21T01:00:03.189Z,5.19
2019-03-21T01:01:03.253Z,5.19
2019-03-21T01:02:03.140Z,5.19
2019-03-21T01:03:04.197Z,5.19
2019-03-21T01:04:03.192Z,5.19
2019-03-21T01:05:03.213Z,5.19
2019-03-21T01:06:03.218Z,5.19
2019-03-21T01:07:03.193Z,5.25
2019-03-21T01:08:03.152Z,5.19
2019-03-21T01:09:03.163Z,5.25
2019-03-21T01:10:03.179Z,5.25
2019-03-21T01:11:03.166Z,5.12
2019-03-21T01:12:03.196Z,4.94
2019-03-21T01:13:03.209Z,4.81
2019-03-21T01:14:03.143Z,4.81
2019-03-21T01:15:03.253Z,4.69
2019-03-21T01:16:03.140Z,4.62
2019-03-21T01:17:03.117Z,4.5
2019-03-21T01:18:03.157Z,4.44
2019-03-21T01:19:03.159Z,4.37
2019-03-21T01:20:03.438Z,4.37
2019-03-21T01:21:03.153Z,4.44
2019-03-21T01:22:03.174Z,4.37
2019-03-21T01:23:03.143Z,4.31
2019-03-21T01:24:03.142Z,4.31
2019-03-21T01:25:03.157Z,4.25
2019-03-21T01:26:03.135Z,4.31
2019-03-21T01:27:03.118Z,4.31
2019-03-21T01:28:03.127Z,4.25
2019-03-21T01:29:03.256Z,4.19
2019-03-21T01:30:03.127Z,4.12
2019-03-21T01:31:03.114Z,4.12
2019-03-21T01:32:03.128Z,4.06
2019-03-21T01:33:03.122Z,3.94
2019-03-21T01:34:03.350Z,3.94
2019-03-21T01:35:03.113Z,3.81
2019-03-21T01:36:03.310Z,3.75
2019-03-21T01:37:03.390Z,3.69
2019-03-21T01:38:03.117Z,3.62
2019-03-21T01:39:03.144Z,3.62
2019-03-21T01:40:03.097Z,3.56
2019-03-21T01:41:03.083Z,3.56
2019-03-21T01:42:03.138Z,3.5
2019-03-21T01:43:03.074Z,3.44
2019-03-21T01:44:03.091Z,3.44
2019-03-21T01:45:03.114Z,3.37
2019-03-21T01:46:03.169Z,3.37
2019-03-21T01:47:03.092Z,3.31
2019-03-21T01:48:03.062Z,3.19
2019-03-21T01:49:03.093Z,3.06
2019-03-21T01:50:03.080Z,3
2019-03-21T01:51:03.102Z,2.94
2019-03-21T01:52:03.103Z,2.87
2019-03-21T01:53:03.114Z,2.94
2019-03-21T01:54:03.072Z,2.87
2019-03-21T01:55:03.069Z,2.87
2019-03-21T01:56:03.131Z,2.81
2019-03-21T01:57:03.088Z,2.75
2019-03-21T01:58:03.164Z,2.75
2019-03-21T01:59:03.289Z,2.69
2019-03-21T02:00:03.146Z,2.69
2019-03-21T02:01:03.091Z,2.75
2019-03-21T02:02:03.091Z,2.69
2019-03-21T02:03:03.122Z,2.62
2019-03-21T02:04:03.052Z,2.56
2019-03-21T02:05:03.105Z,2.56
2019-03-21T02:06:03.056Z,2.56
2019-03-21T02:07:03.049Z,2.62
2019-03-21T02:08:03.069Z,2.69
2019-03-21T02:09:03.089Z,2.69
2019-03-21T02:10:03.083Z,2.75
2019-03-21T02:11:03.102Z,2.75
2019-03-21T02:12:03.121Z,2.81
2019-03-21T02:13:03.090Z,2.87
2019-03-21T02:14:03.054Z,2.94
2019-03-21T02:15:03.053Z,2.94
2019-03-21T02:16:03.130Z,3
2019-03-21T02:17:03.091Z,3
2019-03-21T02:18:03.056Z,3
2019-03-21T02:19:03.070Z,3.06
2019-03-21T02:20:03.280Z,3.06
2019-03-21T02:21:03.152Z,3.12
2019-03-21T02:22:03.045Z,3.12
2019-03-21T02:23:03.145Z,3.12
2019-03-21T02:24:03.033Z,3.06
2019-03-21T02:25:03.064Z,3.06
2019-03-21T02:26:03.073Z,3.06
2019-03-21T02:27:03.028Z,3.06
2019-03-21T02:28:03.086Z,3.06
2019-03-21T02:29:03.104Z,3.12
2019-03-21T02:30:03.132Z,3.19
2019-03-21T02:31:03.090Z,3.19
2019-03-21T02:32:03.066Z,3.12
2019-03-21T02:33:03.080Z,3.19
2019-03-21T02:34:03.118Z,3.19
2019-03-21T02:35:03.098Z,3.19
2019-03-21T02:36:03.121Z,3.19
2019-03-21T02:37:03.087Z,3.19
2019-03-21T02:38:03.050Z,3.25
2019-03-21T02:39:03.069Z,3.25
2019-03-21T02:40:03.224Z,3.19
2019-03-21T02:41:03.036Z,3.25
2019-03-21T02:42:03.068Z,3.19
2019-03-21T02:43:03.116Z,3.19
2019-03-21T02:44:03.075Z,3.19
2019-03-21T02:45:10.323Z,3.25
2019-03-21T02:46:03.175Z,3.19
2019-03-21T02:47:03.047Z,3.19
2019-03-21T02:48:03.107Z,3.25
2019-03-21T02:49:03.056Z,3.19
2019-03-21T02:50:03.048Z,3.25
2019-03-21T02:51:03.049Z,3.25
2019-03-21T02:52:03.041Z,3.25
2019-03-21T02:53:03.038Z,3.25
2019-03-21T02:54:03.138Z,3.31
2019-03-21T02:55:03.018Z,3.37
2019-03-21T02:56:03.017Z,3.37
2019-03-21T02:57:03.100Z,3.37
2019-03-21T02:58:03.070Z,3.37
2019-03-21T02:59:03.063Z,3.44
2019-03-21T03:00:03.125Z,3.44
2019-03-21T03:01:03.008Z,3.5
2019-03-21T03:02:02.981Z,3.5
2019-03-21T03:03:03.035Z,3.56
2019-03-21T03:04:03.015Z,3.56
2019-03-21T03:05:02.976Z,3.56
2019-03-21T03:06:02.985Z,3.56
2019-03-21T03:07:03.057Z,3.56
2019-03-21T03:08:03.020Z,3.56
2019-03-21T03:09:03.094Z,3.56
2019-03-21T03:10:03.015Z,3.56
2019-03-21T03:11:02.985Z,3.56
2019-03-21T03:12:02.976Z,3.62
2019-03-21T03:13:03.900Z,3.56
2019-03-21T03:14:05.169Z,3.62
2019-03-21T03:15:03.056Z,3.62
2019-03-21T03:16:03.062Z,3.62
2019-03-21T03:17:03.005Z,3.62
2019-03-21T03:18:03.001Z,3.62
2019-03-21T03:19:03.036Z,3.69
2019-03-21T03:20:03.037Z,3.69
2019-03-21T03:21:03.038Z,3.69
2019-03-21T03:22:03.069Z,3.69
2019-03-21T03:23:02.994Z,3.62
2019-03-21T03:24:02.981Z,3.69
2019-03-21T03:25:03.147Z,3.69
2019-03-21T03:26:03.075Z,3.75
2019-03-21T03:27:03.149Z,3.75
2019-03-21T03:28:03.898Z,3.75
2019-03-21T03:29:03.019Z,3.75
2019-03-21T03:30:03.193Z,3.75
2019-03-21T03:31:03.258Z,3.81
2019-03-21T03:32:03.073Z,3.81
2019-03-21T03:33:03.133Z,3.81
2019-03-21T03:34:03.053Z,3.81
2019-03-21T03:35:03.117Z,3.75
2019-03-21T03:36:03.065Z,3.81
2019-03-21T03:37:02.973Z,3.81
2019-03-21T03:38:02.993Z,3.81
2019-03-21T03:39:02.985Z,3.81
2019-03-21T03:40:02.981Z,3.81
2019-03-21T03:41:02.974Z,3.81
2019-03-21T03:42:09.097Z,3.81
2019-03-21T03:43:02.987Z,3.75
2019-03-21T03:44:02.973Z,3.69
2019-03-21T03:45:03.026Z,3.62
2019-03-21T03:46:03.132Z,3.56
2019-03-21T03:47:02.917Z,3.5
2019-03-21T03:48:02.963Z,3.5
2019-03-21T03:49:03.827Z,3.44
2019-03-21T03:50:02.995Z,3.31
2019-03-21T03:51:02.922Z,3.25
2019-03-21T03:52:03.040Z,3.19
2019-03-21T03:53:03.114Z,3
2019-03-21T03:54:03.016Z,2.87
2019-03-21T03:55:03.109Z,2.69
2019-03-21T03:56:02.934Z,2.5
2019-03-21T03:57:02.958Z,2.44
2019-03-21T03:58:02.936Z,2.44
2019-03-21T03:59:02.982Z,2.31
2019-03-21T04:00:03.009Z,2.31
2019-03-21T04:01:03.072Z,2.25
2019-03-21T04:02:02.887Z,2.31
2019-03-21T04:03:02.986Z,2.31
2019-03-21T04:04:02.944Z,2.31
2019-03-21T04:05:03.005Z,2.37
2019-03-21T04:06:02.957Z,2.44
2019-03-21T04:07:02.932Z,2.5
2019-03-21T04:08:02.964Z,2.44
2019-03-21T04:09:02.940Z,2.5
2019-03-21T04:10:02.863Z,2.56
2019-03-21T04:11:02.908Z,2.56
2019-03-21T04:12:02.908Z,2.62
2019-03-21T04:13:02.962Z,2.62
2019-03-21T04:14:02.903Z,2.69
2019-03-21T04:15:02.917Z,2.69
2019-03-21T04:16:02.909Z,2.69
2019-03-21T04:17:02.877Z,2.69
2019-03-21T04:18:03.031Z,2.75
2019-03-21T04:19:02.916Z,2.75
2019-03-21T04:20:02.889Z,2.75
2019-03-21T04:21:02.926Z,2.81
2019-03-21T04:22:02.871Z,2.87
2019-03-21T04:23:02.928Z,2.81
2019-03-21T04:24:02.881Z,2.87
2019-03-21T04:25:02.918Z,2.87
2019-03-21T04:26:02.937Z,2.94
2019-03-21T04:27:02.887Z,2.94
2019-03-21T04:28:02.952Z,2.94
2019-03-21T04:29:02.946Z,2.94
2019-03-21T04:30:02.870Z,3
2019-03-21T04:31:03.051Z,3
2019-03-21T04:32:02.905Z,3
2019-03-21T04:33:02.937Z,3
2019-03-21T04:34:02.849Z,3
2019-03-21T04:35:02.848Z,3
2019-03-21T04:36:02.876Z,3
2019-03-21T04:37:02.886Z,2.94
2019-03-21T04:38:02.823Z,2.94
2019-03-21T04:39:02.846Z,2.87
2019-03-21T04:40:02.873Z,2.87
2019-03-21T04:41:02.887Z,2.87
2019-03-21T04:42:02.892Z,2.75
2019-03-21T04:43:02.853Z,2.75
2019-03-21T04:44:03.731Z,2.69
2019-03-21T04:45:02.831Z,2.69
2019-03-21T04:46:04.255Z,2.62
2019-03-21T04:47:02.834Z,2.62
2019-03-21T04:48:02.863Z,2.5
2019-03-21T04:49:02.802Z,2.5
2019-03-21T04:50:02.806Z,2.5
2019-03-21T04:51:02.831Z,2.44
2019-03-21T04:52:03.136Z,2.5
2019-03-21T04:53:02.817Z,2.44
2019-03-21T04:54:02.825Z,2.44
2019-03-21T04:55:02.830Z,2.44
2019-03-21T04:56:02.790Z,2.5
2019-03-21T04:57:02.799Z,2.44
2019-03-21T04:58:02.805Z,2.37
2019-03-21T04:59:02.789Z,2.37
2019-03-21T05:00:04.437Z,2.37
2019-03-21T05:01:02.844Z,2.25
2019-03-21T05:02:02.863Z,2.19
2019-03-21T05:03:02.815Z,2.19
2019-03-21T05:04:02.786Z,2.19
2019-03-21T05:05:02.883Z,2.06
2019-03-21T05:06:02.863Z,2.06
2019-03-21T05:07:02.820Z,2
2019-03-21T05:08:02.825Z,2
2019-03-21T05:09:02.821Z,2
2019-03-21T05:10:02.828Z,2
2019-03-21T05:11:03.760Z,2
2019-03-21T05:12:02.789Z,2.06
2019-03-21T05:13:03.058Z,2.06
2019-03-21T05:14:02.803Z,2.12
2019-03-21T05:15:02.833Z,2.12
2019-03-21T05:16:15.368Z,2.12
2019-03-21T05:17:02.813Z,2.12
2019-03-21T05:18:02.781Z,2.12
2019-03-21T05:19:02.854Z,2.19
2019-03-21T05:20:02.867Z,2.19
2019-03-21T05:21:02.818Z,2.19
2019-03-21T05:22:02.806Z,2.19
2019-03-21T05:23:02.793Z,2.19
2019-03-21T05:24:02.763Z,2.19
2019-03-21T05:25:02.769Z,2.19
2019-03-21T05:26:04.529Z,2.19
2019-03-21T05:27:02.764Z,2.19
2019-03-21T05:28:02.767Z,2.19
2019-03-21T05:29:02.744Z,2.19
2019-03-21T05:30:03.659Z,2.19
2019-03-21T05:31:02.747Z,2.19
2019-03-21T05:32:04.158Z,2.19
2019-03-21T05:33:02.838Z,2.19
2019-03-21T05:34:03.024Z,2.19
2019-03-21T05:35:02.756Z,2.19
2019-03-21T05:36:02.750Z,2.19
2019-03-21T05:37:02.773Z,2.25
2019-03-21T05:38:02.731Z,2.25
2019-03-21T05:39:02.793Z,2.19
2019-03-21T05:40:03.265Z,2.25
2019-03-21T05:41:02.763Z,2.25
2019-03-21T05:42:02.742Z,2.19
2019-03-21T05:43:02.799Z,2.19
2019-03-21T05:44:02.737Z,2.12
2019-03-21T05:45:02.718Z,2.19
2019-03-21T05:46:02.733Z,2.12
2019-03-21T05:47:02.717Z,2.19
2019-03-21T05:48:02.755Z,2.19
2019-03-21T05:49:02.702Z,2.19
2019-03-21T05:50:02.732Z,2.19
2019-03-21T05:51:02.765Z,2.19
2019-03-21T05:52:02.742Z,2.25
2019-03-21T05:53:02.730Z,2.25
2019-03-21T05:54:02.822Z,2.25
2019-03-21T05:55:02.716Z,2.25
2019-03-21T05:56:02.923Z,2.31
2019-03-21T05:57:02.952Z,2.31
2019-03-21T05:58:02.759Z,2.31
2019-03-21T05:59:02.736Z,2.37
2019-03-21T06:00:02.705Z,2.37
2019-03-21T06:01:02.721Z,2.37
2019-03-21T06:02:02.830Z,2.44
2019-03-21T06:03:02.696Z,2.44
2019-03-21T06:04:03.075Z,2.44
2019-03-21T06:05:02.692Z,2.44
2019-03-21T06:06:02.749Z,2.5
2019-03-21T06:07:02.689Z,2.44
2019-03-21T06:08:02.723Z,2.5
2019-03-21T06:09:02.751Z,2.5
2019-03-21T06:10:02.684Z,2.5
2019-03-21T06:11:02.679Z,2.5
2019-03-21T06:12:02.727Z,2.5
2019-03-21T06:13:02.677Z,2.5
2019-03-21T06:14:02.736Z,2.5
2019-03-21T06:15:02.749Z,2.5
2019-03-21T06:16:02.713Z,2.5
2019-03-21T06:17:02.700Z,2.56
2019-03-21T06:18:02.788Z,2.56
2019-03-21T06:19:03.674Z,2.56
2019-03-21T06:20:04.750Z,2.56
2019-03-21T06:21:02.721Z,2.56
2019-03-21T06:22:02.689Z,2.56
2019-03-21T06:23:02.694Z,2.56
2019-03-21T06:24:02.718Z,2.62
2019-03-21T06:25:02.701Z,2.62
2019-03-21T06:26:02.673Z,2.62
2019-03-21T06:27:15.236Z,2.69
2019-03-21T06:28:02.739Z,2.69
2019-03-21T06:29:02.677Z,2.69
2019-03-21T06:30:02.740Z,2.75
2019-03-21T06:31:02.665Z,2.75
2019-03-21T06:32:02.734Z,2.75
2019-03-21T06:33:02.737Z,2.75
2019-03-21T06:34:02.782Z,2.81
2019-03-21T06:35:02.927Z,2.75
2019-03-21T06:36:02.665Z,2.75
2019-03-21T06:37:02.672Z,2.81
2019-03-21T06:38:02.731Z,2.75
2019-03-21T06:39:02.695Z,2.81
2019-03-21T06:40:03.835Z,2.87
2019-03-21T06:41:02.836Z,2.87
2019-03-21T06:42:08.997Z,2.87
2019-03-21T06:43:05.622Z,2.94
2019-03-21T06:44:02.639Z,3
2019-03-21T06:45:02.701Z,2.94
2019-03-21T06:46:02.645Z,3
2019-03-21T06:47:02.727Z,3.06
2019-03-21T06:48:02.707Z,3.06
2019-03-21T06:49:03.575Z,3.06
2019-03-21T06:50:02.682Z,3.06
2019-03-21T06:51:02.646Z,3.12
2019-03-21T06:52:02.676Z,3.19
2019-03-21T06:53:03.703Z,3.19
2019-03-21T06:54:02.655Z,3.19
2019-03-21T06:55:02.664Z,3.25
2019-03-21T06:56:02.686Z,3.25
2019-03-21T06:57:03.137Z,3.25
2019-03-21T06:58:02.700Z,3.31
2019-03-21T06:59:02.652Z,3.37
2019-03-21T07:00:02.656Z,3.37
2019-03-21T07:01:02.890Z,3.37
2019-03-21T07:02:02.666Z,3.44
2019-03-21T07:03:02.667Z,3.5
2019-03-21T07:04:07.941Z,3.5
2019-03-21T07:05:02.640Z,3.56
2019-03-21T07:06:02.600Z,3.56
2019-03-21T07:07:08.939Z,3.56
2019-03-21T07:08:02.685Z,3.69
2019-03-21T07:09:02.608Z,3.69
2019-03-21T07:10:02.706Z,3.69
2019-03-21T07:11:02.626Z,3.75
2019-03-21T07:12:02.743Z,3.75
2019-03-21T07:13:02.634Z,3.81
2019-03-21T07:14:02.666Z,3.81
2019-03-21T07:15:04.836Z,3.87
2019-03-21T07:16:02.670Z,3.87
2019-03-21T07:17:02.631Z,3.87
2019-03-21T07:18:02.612Z,3.94
2019-03-21T07:19:02.595Z,3.94
2019-03-21T07:20:02.657Z,3.94
2019-03-21T07:21:02.613Z,3.87
2019-03-21T07:22:02.653Z,3.94
2019-03-21T07:23:02.815Z,4
2019-03-21T07:24:02.643Z,4
2019-03-21T07:25:02.593Z,4.06
2019-03-21T07:26:02.598Z,4.06
2019-03-21T07:27:02.683Z,4.12
2019-03-21T07:28:02.595Z,4.06
2019-03-21T07:29:02.591Z,4.12
2019-03-21T07:30:02.648Z,4.19
2019-03-21T07:31:02.618Z,4.19
2019-03-21T07:32:02.610Z,4.25
2019-03-21T07:33:02.576Z,4.31
2019-03-21T07:34:02.542Z,4.31
2019-03-21T07:35:02.556Z,4.37
2019-03-21T07:36:02.579Z,4.44
2019-03-21T07:37:02.662Z,4.5
2019-03-21T07:38:02.567Z,4.5
2019-03-21T07:39:02.557Z,4.5
2019-03-21T07:40:02.612Z,4.62
2019-03-21T07:41:02.570Z,4.62
2019-03-21T07:42:02.607Z,4.69
2019-03-21T07:43:02.573Z,4.69
2019-03-21T07:44:02.589Z,4.75
2019-03-21T07:45:02.590Z,4.81
2019-03-21T07:46:02.542Z,4.87
2019-03-21T07:47:13.759Z,4.94
2019-03-21T07:48:05.690Z,4.94
2019-03-21T07:49:02.563Z,4.94
2019-03-21T07:50:02.562Z,5
2019-03-21T07:51:02.644Z,5.06
2019-03-21T07:52:02.646Z,5.12
2019-03-21T07:53:02.567Z,5.12
2019-03-21T07:54:02.607Z,5.19
2019-03-21T07:55:02.564Z,5.25
2019-03-21T07:56:02.547Z,5.25
2019-03-21T07:57:02.639Z,5.31
2019-03-21T07:58:02.525Z,5.31
2019-03-21T07:59:03.463Z,5.37
2019-03-21T08:00:02.535Z,5.37
2019-03-21T08:01:03.419Z,5.44
2019-03-21T08:02:02.518Z,5.44
2019-03-21T08:03:02.596Z,5.5
2019-03-21T08:04:03.862Z,5.56
2019-03-21T08:05:03.781Z,5.56
2019-03-21T08:06:02.908Z,5.62
2019-03-21T08:07:02.605Z,5.69
2019-03-21T08:08:02.572Z,5.69
2019-03-21T08:09:02.521Z,5.69
2019-03-21T08:10:02.511Z,5.69
2019-03-21T08:11:02.517Z,5.75
2019-03-21T08:12:02.520Z,5.75
2019-03-21T08:13:03.396Z,5.87
2019-03-21T08:14:03.592Z,5.87
2019-03-21T08:15:03.630Z,6
2019-03-21T08:16:02.500Z,6
2019-03-21T08:17:08.959Z,6
2019-03-21T08:18:02.520Z,6.06
2019-03-21T08:19:03.073Z,6.12
2019-03-21T08:20:02.504Z,6.12
2019-03-21T08:21:02.522Z,6.12
2019-03-21T08:22:02.538Z,6.19
2019-03-21T08:23:02.531Z,6.25
2019-03-21T08:24:02.663Z,6.25
2019-03-21T08:25:02.481Z,6.31
2019-03-21T08:26:02.579Z,6.37
2019-03-21T08:27:02.492Z,6.37
2019-03-21T08:28:02.594Z,6.44
2019-03-21T08:29:02.523Z,6.56
2019-03-21T08:30:02.478Z,6.56
2019-03-21T08:31:02.494Z,6.56
2019-03-21T08:32:03.382Z,6.69
2019-03-21T08:33:03.561Z,6.69
2019-03-21T08:34:02.588Z,6.75
2019-03-21T08:35:04.762Z,6.75
2019-03-21T08:36:02.499Z,6.81
2019-03-21T08:37:02.514Z,6.81
2019-03-21T08:38:02.517Z,6.81
2019-03-21T08:39:02.488Z,6.87
2019-03-21T08:40:02.482Z,6.94
2019-03-21T08:41:02.448Z,6.94
2019-03-21T08:42:02.470Z,7
2019-03-21T08:43:02.523Z,7
2019-03-21T08:44:02.566Z,7.06
2019-03-21T08:45:02.462Z,7.12
2019-03-21T08:46:02.458Z,7.12
2019-03-21T08:47:02.509Z,7.19
2019-03-21T08:48:02.466Z,7.19
2019-03-21T08:49:02.459Z,7.31
2019-03-21T08:50:02.490Z,7.37
2019-03-21T08:51:09.138Z,7.37
2019-03-21T08:52:02.502Z,7.44
2019-03-21T08:53:02.466Z,7.44
2019-03-21T08:54:02.486Z,7.56
2019-03-21T08:55:02.501Z,7.75
2019-03-21T08:56:02.476Z,7.87
2019-03-21T08:57:02.552Z,7.94
2019-03-21T08:58:02.438Z,8.19
2019-03-21T08:59:02.443Z,8.19
2019-03-21T09:00:02.508Z,8.31
2019-03-21T09:01:02.440Z,8.44
2019-03-21T09:02:02.476Z,8.5
2019-03-21T09:03:02.432Z,8.56
2019-03-21T09:04:02.427Z,8.69
2019-03-21T09:05:02.513Z,8.69
2019-03-21T09:06:02.424Z,8.81
2019-03-21T09:07:02.460Z,8.88
2019-03-21T09:08:02.450Z,8.94
2019-03-21T09:09:02.503Z,8.94
2019-03-21T09:10:02.525Z,8.94
2019-03-21T09:11:02.415Z,9
2019-03-21T09:12:02.463Z,9.06
2019-03-21T09:13:02.459Z,9.06
2019-03-21T09:14:02.472Z,9.13
2019-03-21T09:15:02.427Z,9.19
2019-03-21T09:16:02.429Z,9.25
2019-03-21T09:17:02.442Z,9.31
2019-03-21T09:18:02.447Z,9.44
2019-03-21T09:19:02.562Z,9.38
2019-03-21T09:20:02.463Z,9.5
2019-03-21T09:21:02.868Z,9.5
2019-03-21T09:22:02.476Z,9.5
2019-03-21T09:23:02.516Z,9.63
2019-03-21T09:24:02.411Z,9.69
2019-03-21T09:25:05.213Z,9.75
2019-03-21T09:26:02.479Z,9.75
2019-03-21T09:27:02.565Z,9.75
2019-03-21T09:28:03.443Z,9.81
2019-03-21T09:29:02.431Z,9.88
2019-03-21T09:30:02.442Z,9.88
2019-03-21T09:31:02.418Z,9.94
2019-03-21T09:32:02.460Z,9.88
2019-03-21T09:33:02.417Z,9.88
2019-03-21T09:34:02.419Z,9.88
2019-03-21T09:35:02.456Z,9.88
2019-03-21T09:36:02.727Z,10
2019-03-21T09:37:04.582Z,10
2019-03-21T09:38:02.808Z,10
2019-03-21T09:39:02.385Z,10.06
2019-03-21T09:40:02.521Z,10.13
2019-03-21T09:41:02.393Z,10.13
2019-03-21T09:42:02.582Z,10.19
2019-03-21T09:43:03.636Z,10.25
2019-03-21T09:44:02.393Z,10.25
2019-03-21T09:45:02.368Z,10.31
2019-03-21T09:46:03.335Z,10.44
2019-03-21T09:47:02.406Z,10.5
2019-03-21T09:48:02.411Z,10.5
2019-03-21T09:49:02.406Z,10.63
2019-03-21T09:50:02.378Z,10.63
2019-03-21T09:51:03.272Z,10.75
2019-03-21T09:52:02.351Z,10.81
2019-03-21T09:53:02.366Z,10.81
2019-03-21T09:54:10.264Z,10.81
2019-03-21T09:55:02.412Z,10.81
2019-03-21T09:56:02.407Z,10.88
2019-03-21T09:57:03.030Z,10.94
2019-03-21T09:58:02.729Z,11
2019-03-21T09:59:02.458Z,11.06
2019-03-21T10:00:02.448Z,11.12
2019-03-21T10:01:02.514Z,11.12
2019-03-21T10:02:02.375Z,11.19
2019-03-21T10:03:02.457Z,11.19
2019-03-21T10:04:02.401Z,11.25
2019-03-21T10:05:02.460Z,11.25
2019-03-21T10:06:02.367Z,11.31
2019-03-21T10:07:02.419Z,11.31
2019-03-21T10:08:02.389Z,11.38
2019-03-21T10:09:02.325Z,11.38
2019-03-21T10:10:02.357Z,11.44
2019-03-21T10:11:02.456Z,11.56
2019-03-21T10:12:02.370Z,11.56
2019-03-21T10:13:02.334Z,11.63
2019-03-21T10:14:02.349Z,11.63
2019-03-21T10:15:02.340Z,11.69
2019-03-21T10:16:02.375Z,11.63
2019-03-21T10:17:02.372Z,11.69
2019-03-21T10:18:02.361Z,11.75
2019-03-21T10:19:02.504Z,11.75
2019-03-21T10:20:02.339Z,11.75
2019-03-21T10:21:02.335Z,11.81
2019-03-21T10:22:02.348Z,11.81
2019-03-21T10:23:02.368Z,11.81
2019-03-21T10:24:02.394Z,11.81
2019-03-21T10:25:02.364Z,11.88
2019-03-21T10:26:02.323Z,11.94
2019-03-21T10:27:02.327Z,12
2019-03-21T10:28:02.389Z,12.13
2019-03-21T10:29:02.395Z,12.13
2019-03-21T10:30:02.325Z,12.13
2019-03-21T10:31:02.324Z,12.19
2019-03-21T10:32:14.943Z,12.19
2019-03-21T10:33:02.335Z,12.25
2019-03-21T10:34:02.350Z,12.31
2019-03-21T10:35:02.328Z,12.37
2019-03-21T10:36:02.316Z,12.44
2019-03-21T10:37:02.348Z,12.5
2019-03-21T10:38:02.313Z,12.56
2019-03-21T10:39:02.342Z,12.63
2019-03-21T10:40:02.366Z,12.63
2019-03-21T10:41:02.357Z,12.63
2019-03-21T10:42:02.329Z,12.69
2019-03-21T10:43:02.323Z,12.69
2019-03-21T10:44:02.280Z,12.69
2019-03-21T10:45:02.402Z,12.75
2019-03-21T10:46:02.356Z,12.75
2019-03-21T10:47:02.401Z,12.81
2019-03-21T10:48:02.283Z,12.94
2019-03-21T10:49:02.342Z,13
2019-03-21T10:50:02.334Z,13
2019-03-21T10:51:02.348Z,13
2019-03-21T10:52:02.310Z,13
2019-03-21T10:53:02.343Z,13.06
2019-03-21T10:54:02.295Z,13.06
2019-03-21T10:55:02.279Z,13.06
2019-03-21T10:56:02.341Z,13.13
2019-03-21T10:57:02.320Z,13.13
2019-03-21T10:58:02.278Z,13.19
2019-03-21T10:59:02.274Z,13.19
2019-03-21T11:00:02.780Z,13.25
2019-03-21T11:01:02.280Z,13.25
2019-03-21T11:01:15.958Z,13.31
2019-03-21T11:02:15.915Z,13.31
2019-03-21T11:03:15.960Z,13.25
2019-03-21T11:04:15.920Z,13.31
2019-03-21T11:05:15.944Z,13.31
2019-03-21T11:06:15.889Z,13.38
2019-03-21T11:07:15.897Z,13.44
2019-03-21T11:08:15.850Z,13.44
2019-03-21T11:09:15.883Z,13.5
2019-03-21T11:10:15.867Z,13.5
2019-03-21T11:11:15.873Z,13.56
2019-03-21T11:12:15.858Z,13.62
2019-03-21T11:13:15.895Z,13.56
2019-03-21T11:14:15.878Z,13.62
2019-03-21T11:15:15.899Z,13.62
2019-03-21T11:16:15.885Z,13.62
2019-03-21T11:17:15.914Z,13.62
2019-03-21T11:18:15.863Z,13.69
2019-03-21T11:19:15.967Z,13.75
2019-03-21T11:20:15.927Z,13.75
2019-03-21T11:21:15.849Z,13.81
2019-03-21T11:22:15.878Z,13.88
2019-03-21T11:23:16.038Z,13.88
2019-03-21T11:24:16.076Z,13.94
2019-03-21T11:25:15.915Z,13.88
2019-03-21T11:26:16.007Z,13.88
2019-03-21T11:27:15.955Z,13.94
2019-03-21T11:28:18.107Z,14
2019-03-21T11:29:15.900Z,14.06
2019-03-21T11:30:16.691Z,14
2019-03-21T11:31:15.857Z,14.13
2019-03-21T11:32:15.878Z,14.25
2019-03-21T11:33:15.904Z,14.25
2019-03-21T11:34:15.830Z,14.25
2019-03-21T11:35:15.857Z,14.25
2019-03-21T11:36:15.858Z,14.31
2019-03-21T11:37:15.833Z,14.31
2019-03-21T11:38:15.937Z,14.38
2019-03-21T11:39:15.823Z,14.38
2019-03-21T11:40:15.893Z,14.38
2019-03-21T11:41:15.888Z,14.38
2019-03-21T11:42:15.905Z,14.44
2019-03-21T11:43:15.982Z,14.5
2019-03-21T11:44:15.944Z,14.5
2019-03-21T11:45:15.943Z,14.56
2019-03-21T11:46:16.166Z,14.63
2019-03-21T11:47:15.876Z,14.63
2019-03-21T11:48:15.910Z,14.69
2019-03-21T11:49:15.900Z,14.69
2019-03-21T11:50:15.950Z,14.63
2019-03-21T11:51:15.906Z,14.69
2019-03-21T11:52:19.190Z,14.75
2019-03-21T11:53:15.939Z,14.81
2019-03-21T11:54:15.822Z,14.87
2019-03-21T11:55:15.863Z,14.94
2019-03-21T11:56:15.884Z,15
2019-03-21T11:57:15.831Z,15
2019-03-21T11:58:18.204Z,15
2019-03-21T11:59:15.832Z,15
2019-03-21T12:00:15.816Z,15
2019-03-21T12:01:16.998Z,15
2019-03-21T12:02:27.779Z,15
2019-03-21T12:03:15.948Z,15.06
2019-03-21T12:04:15.878Z,15.13
2019-03-21T12:05:15.859Z,15.13
2019-03-21T12:06:15.806Z,15.19
2019-03-21T12:07:15.793Z,15.19
2019-03-21T12:08:16.068Z,15.25
2019-03-21T12:09:15.832Z,15.25
2019-03-21T12:10:15.793Z,15.31
2019-03-21T12:11:15.803Z,15.31
2019-03-21T12:12:15.800Z,15.31
2019-03-21T12:13:15.786Z,15.31
2019-03-21T12:14:15.859Z,15.38
2019-03-21T12:15:15.875Z,15.44
2019-03-21T12:16:15.907Z,15.44
2019-03-21T12:17:15.780Z,15.44
2019-03-21T12:18:15.825Z,15.44
2019-03-21T12:19:15.820Z,15.44
2019-03-21T12:20:15.785Z,15.5
2019-03-21T12:21:15.761Z,15.5
2019-03-21T12:22:15.769Z,15.56
2019-03-21T12:23:15.782Z,15.56
2019-03-21T12:24:15.825Z,15.5
2019-03-21T12:25:15.751Z,15.56
2019-03-21T12:26:15.801Z,15.63
2019-03-21T12:27:15.788Z,15.63
2019-03-21T12:28:15.779Z,15.69
2019-03-21T12:29:15.760Z,15.75
2019-03-21T12:30:15.791Z,15.56
2019-03-21T12:31:15.782Z,15.56
2019-03-21T12:32:15.753Z,15.63
2019-03-21T12:33:15.813Z,15.75
2019-03-21T12:34:15.755Z,15.75
2019-03-21T12:35:15.786Z,15.69
2019-03-21T12:36:15.782Z,15.69
2019-03-21T12:37:17.228Z,15.69
2019-03-21T12:38:15.775Z,15.75
2019-03-21T12:39:15.773Z,15.88
2019-03-21T12:40:15.731Z,15.94
2019-03-21T12:41:15.796Z,16.06
2019-03-21T12:42:15.735Z,15.94
2019-03-21T12:43:15.769Z,16
2019-03-21T12:44:15.793Z,16.06
2019-03-21T12:45:15.796Z,16.06
2019-03-21T12:46:15.874Z,16.12
2019-03-21T12:47:15.777Z,16.19
2019-03-21T12:48:15.734Z,16.25
2019-03-21T12:49:15.769Z,16.31
2019-03-21T12:50:15.769Z,16.25
2019-03-21T12:51:15.819Z,16.31
2019-03-21T12:52:15.826Z,16.31
2019-03-21T12:53:15.772Z,16.37
2019-03-21T12:54:15.777Z,16.44
2019-03-21T12:55:15.713Z,16.5
2019-03-21T12:56:15.814Z,16.56
2019-03-21T12:57:15.767Z,16.56
2019-03-21T12:58:15.725Z,16.69
2019-03-21T12:59:15.732Z,16.69
2019-03-21T13:00:15.788Z,16.75
2019-03-21T13:01:15.735Z,16.81
2019-03-21T13:02:15.745Z,16.94
2019-03-21T13:03:15.797Z,16.94
2019-03-21T13:04:15.757Z,16.87
2019-03-21T13:05:15.720Z,16.94
2019-03-21T13:06:15.794Z,16.87
2019-03-21T13:07:20.036Z,16.94
2019-03-21T13:08:17.262Z,16.94
2019-03-21T13:09:15.751Z,16.94
2019-03-21T13:10:15.739Z,17.06
2019-03-21T13:11:15.817Z,17.06
2019-03-21T13:12:15.760Z,17.12
2019-03-21T13:13:15.869Z,17.12
2019-03-21T13:14:15.986Z,17.19
2019-03-21T13:15:15.772Z,17.19
2019-03-21T13:16:15.700Z,17.25